Main page
METAR-TAF:

METAR-TAF

Airports :

Military air base

Tulln an der Donau, Austria

latitude: 48-19N, longitude: 016-07E, elevation: 175 m

METAR: missing

Time: 19:42 (18:42 UTC)

Forecast

The report was made 7 hours and 27 minutes ago, at 11:15 UTC
Forecast valid from 19 at 12 UTC to 19 at 21 UTC
Wind 3 kt from variable directions
Visibility: 3000 m
Scattered clouds at a height of 600 ft
Overcast at a height of 1000 ft
light snow, mist
Temporary
from 19 at 12 UTC to 19 at 16 UTC
Visibility: 7000 m
Broken clouds at a height of 2000 ft

TAF: LOXT 191115Z 1912/1921 VRB03KT 3000 -SN BR SCT006 OVC010 TEMPO 1912/1916 7000 BKN020

Weather observations and forecasts of more than 4000 airports (METAR and TAF reports).

The available stations are represented by yellow and red dots on the map.

Hover mouse over dot to see the name of the station.

Then click to see weather observations and forecasts.

To change the map : click on the green buttons with a black cross to zoom in, on the green button with a dash to zoom out, or on the green arrows for adjacent maps.


METAR-TAF: